Time;durP1;ratioP1;P1;durP2;ratioP2;P2;SDS_P1;SDS_P2;PMS_P1;PMS_P2;Temp;Humidity;BMP_temperature;BMP_pressure;BME280_temperature;BME280_humidity;BME280_pressure;Samples;Min_cycle;Max_cycle;Signal;HPM_P1;HPM_P2
2021/07/19 00:00:14;;;;;;;0.20;0.20;;;;;;;23.03;55.11;102254.72;5102306;28;20062;-73
2021/07/19 00:02:41;;;;;;;0.30;0.30;;;;;;;23.54;55.37;102339.59;5105223;28;20445;-72
2021/07/19 00:05:09;;;;;;;0.45;0.45;;;;;;;23.35;55.27;102314.19;5101797;28;20062;-73
2021/07/19 00:07:34;;;;;;;0.10;0.10;;;;;;;23.50;55.43;102339.06;5102548;28;20102;-73
2021/07/19 00:10:00;;;;;;;0.38;0.38;;;;;;;23.54;55.61;102343.06;5102736;28;20156;-73
2021/07/19 00:12:26;;;;;;;0.10;0.10;;;;;;;23.51;55.45;102338.88;5105327;28;20060;-73
2021/07/19 00:14:52;;;;;;;0.10;0.10;;;;;;;23.51;55.57;102333.56;5103895;28;20114;-73
2021/07/19 00:17:19;;;;;;;0.22;0.22;;;;;;;23.51;55.38;102338.06;5106222;28;20153;-73
2021/07/19 00:19:46;;;;;;;0.20;0.20;;;;;;;23.42;55.52;102329.28;5101808;28;20120;-72
2021/07/19 00:22:12;;;;;;;0.15;0.15;;;;;;;23.51;55.55;102346.03;5104729;28;20040;-73
2021/07/19 00:24:37;;;;;;;0.15;0.15;;;;;;;23.50;55.35;102334.56;5104533;28;20054;-73
2021/07/19 00:27:03;;;;;;;0.10;0.10;;;;;;;23.40;55.65;102320.63;5104556;28;20277;-72
2021/07/19 00:29:29;;;;;;;0.25;0.25;;;;;;;23.22;55.64;102288.09;5086201;28;20080;-73
2021/07/19 00:31:54;;;;;;;0.10;0.10;;;;;;;23.50;55.83;102331.09;5104546;28;20044;-72
2021/07/19 00:34:23;;;;;;;0.10;0.10;;;;;;;23.49;55.60;102321.44;5086954;28;20123;-73
2021/07/19 00:36:50;;;;;;;0.28;0.28;;;;;;;23.49;55.57;102330.25;5103401;28;20066;-72
2021/07/19 00:39:16;;;;;;;0.10;0.10;;;;;;;23.50;55.50;102333.75;5103513;28;20750;-72
2021/07/19 00:41:41;;;;;;;0.10;0.10;;;;;;;23.48;55.75;102338.41;5102176;28;20040;-72
2021/07/19 00:44:08;;;;;;;0.10;0.10;;;;;;;23.48;55.67;102333.09;5085899;28;20043;-73
2021/07/19 00:46:34;;;;;;;0.10;0.10;;;;;;;23.39;55.65;102318.16;5103218;28;20382;-72
2021/07/19 00:48:59;;;;;;;0.10;0.10;;;;;;;23.37;55.62;102318.31;5101006;28;20389;-73
2021/07/19 00:51:26;;;;;;;0.28;0.28;;;;;;;23.46;55.71;102345.72;5080485;28;20076;-73
2021/07/19 00:53:52;;;;;;;0.10;0.10;;;;;;;23.42;55.92;102328.44;5103779;28;20034;-72
2021/07/19 00:56:20;;;;;;;0.10;0.10;;;;;;;23.41;55.76;102324.97;5089123;28;20035;-73
2021/07/19 00:58:51;;;;;;;0.20;0.20;;;;;;;23.31;55.57;102312.81;5108459;28;20027;-73
2021/07/19 01:01:18;;;;;;;0.20;0.20;;;;;;;23.44;55.94;102331.75;5108879;28;20076;-72
2021/07/19 01:03:45;;;;;;;0.10;0.10;;;;;;;23.37;55.75;102322.81;5090317;28;20435;-72
2021/07/19 01:06:12;;;;;;;0.20;0.20;;;;;;;23.08;55.88;102281.63;5088628;28;20055;-72
2021/07/19 01:08:40;;;;;;;0.13;0.13;;;;;;;23.43;55.79;102336.25;5089231;28;20493;-72
2021/07/19 01:11:05;;;;;;;0.15;0.15;;;;;;;23.40;55.81;102336.59;5108428;28;20572;-72
2021/07/19 01:13:32;;;;;;;0.10;0.10;;;;;;;23.30;55.87;102312.00;5107707;28;20118;-72
2021/07/19 01:15:58;;;;;;;0.10;0.10;;;;;;;23.42;55.87;102323.97;5107326;28;20416;-72
2021/07/19 01:18:23;;;;;;;0.10;0.10;;;;;;;23.36;55.95;102315.84;5107669;28;20050;-72
2021/07/19 01:21:04;;;;;;;0.10;0.10;;;;;;;23.42;56.08;102331.94;5087954;28;20093;-72
2021/07/19 01:23:58;;;;;;;0.10;0.10;;;;;;;23.41;55.93;102321.47;5089604;28;20036;-72
2021/07/19 01:26:44;;;;;;;0.20;0.20;;;;;;;23.40;56.27;102333.94;5088222;28;20032;-72
2021/07/19 01:29:11;;;;;;;0.10;0.10;;;;;;;23.34;55.89;102323.13;5088528;28;20055;-72
2021/07/19 01:31:42;;;;;;;0.10;0.10;;;;;;;23.33;56.30;102321.47;5090090;28;20063;-72
2021/07/19 01:34:11;;;;;;;;;;;;;;;23.39;56.17;102342.09;5105002;28;20160;-72
2021/07/19 01:36:45;;;;;;;0.20;0.20;;;;;;;23.28;56.26;102316.66;5090185;28;19915;-73
2021/07/19 01:39:32;;;;;;;0.20;0.20;;;;;;;23.25;55.96;102318.81;5090066;28;20185;-72
2021/07/19 01:42:02;;;;;;;;;;;;;;;23.38;55.97;102327.13;5108362;28;20090;-72
2021/07/19 01:44:29;;;;;;;0.10;0.10;;;;;;;23.23;56.32;102300.38;5105520;28;20048;-72
2021/07/19 01:46:59;;;;;;;0.10;0.10;;;;;;;22.97;56.01;102246.56;5105438;28;20047;-72
2021/07/19 01:49:27;;;;;;;0.10;0.10;;;;;;;23.38;56.14;102308.53;5088937;28;20110;-72
2021/07/19 01:51:55;;;;;;;0.17;0.17;;;;;;;23.20;56.28;102285.59;5090516;28;20063;-73
2021/07/19 01:54:24;;;;;;;0.10;0.10;;;;;;;23.38;56.19;102313.84;5088284;28;20051;-72
2021/07/19 01:56:54;;;;;;;0.10;0.10;;;;;;;23.38;55.96;102309.34;5089508;28;20481;-73
2021/07/19 01:59:21;;;;;;;0.10;0.10;;;;;;;23.32;56.07;102302.03;5088304;28;20035;-73
2021/07/19 02:02:08;;;;;;;0.20;0.20;;;;;;;23.36;56.05;102316.66;5105929;28;20041;-72
2021/07/19 02:04:36;;;;;;;0.20;0.20;;;;;;;23.34;56.37;102312.47;5087601;28;20072;-72
2021/07/19 02:07:03;;;;;;;0.10;0.10;;;;;;;23.08;56.16;102270.16;5103312;28;20456;-72
2021/07/19 02:09:33;;;;;;;0.20;0.20;;;;;;;23.20;56.31;102287.44;5088552;28;20035;-72
2021/07/19 02:12:17;;;;;;;0.20;0.20;;;;;;;23.06;56.01;102259.69;5107103;28;20256;-72
2021/07/19 02:14:47;;;;;;;0.00;0.00;;;;;;;23.36;56.08;102313.19;5088958;28;20110;-72
2021/07/19 02:17:18;;;;;;;0.00;0.00;;;;;;;23.22;56.20;102280.13;5088241;28;20031;-72
2021/07/19 02:19:46;;;;;;;0.10;0.10;;;;;;;23.26;56.29;102294.72;5105084;28;20116;-72
2021/07/19 02:22:18;;;;;;;0.17;0.17;;;;;;;23.35;56.29;102312.34;5089929;28;20027;-72
2021/07/19 02:25:09;;;;;;;0.10;0.10;;;;;;;23.34;56.44;102312.47;5105590;28;20056;-72
2021/07/19 02:27:49;;;;;;;0.10;0.10;;;;;;;23.35;56.26;102317.66;5087874;28;20039;-72
2021/07/19 02:30:21;;;;;;;0.10;0.10;;;;;;;23.24;56.30;102303.88;5085526;28;20032;-72
2021/07/19 02:32:55;;;;;;;0.10;0.10;;;;;;;23.30;56.35;102311.16;5086792;28;20126;-72
2021/07/19 02:35:25;;;;;;;0.10;0.10;;;;;;;23.15;56.42;102295.88;5086956;28;20042;-72
2021/07/19 02:37:53;;;;;;;0.10;0.10;;;;;;;23.34;56.24;102331.94;5088606;28;20066;-72
2021/07/19 02:40:26;;;;;;;0.10;0.10;;;;;;;23.34;56.31;102325.78;5103796;28;20040;-72
2021/07/19 02:43:00;;;;;;;0.20;0.20;;;;;;;23.23;56.33;102311.00;5088898;28;20050;-72
2021/07/19 02:45:32;;;;;;;0.10;0.10;;;;;;;23.33;56.44;102324.94;5106657;27;20035;-72
2021/07/19 02:48:00;;;;;;;0.20;0.20;;;;;;;23.13;56.47;102287.25;5102442;28;20063;-72
2021/07/19 02:50:35;;;;;;;0.10;0.10;;;;;;;23.26;56.50;102310.69;5075841;27;20078;-72
2021/07/19 02:53:04;;;;;;;0.10;0.10;;;;;;;23.32;56.21;102314.47;5106645;27;20143;-72
2021/07/19 02:55:31;;;;;;;0.10;0.10;;;;;;;23.31;56.29;102310.16;5113586;27;20057;-73
2021/07/19 02:58:00;;;;;;;0.10;0.10;;;;;;;23.29;56.44;102313.00;5126000;27;20042;-72
2021/07/19 03:00:27;;;;;;;0.10;0.10;;;;;;;23.28;56.46;102318.47;5111312;27;20031;-73
2021/07/19 03:03:00;;;;;;;0.10;0.10;;;;;;;23.24;56.49;102309.19;5078522;28;20031;-73
2021/07/19 03:05:34;;;;;;;0.20;0.20;;;;;;;23.21;56.27;102300.56;5082574;27;20032;-72
2021/07/19 03:08:05;;;;;;;0.20;0.20;;;;;;;23.12;56.43;102298.03;5100345;27;20032;-72
2021/07/19 03:10:56;;;;;;;0.10;0.10;;;;;;;23.29;56.50;102326.28;5091677;28;20764;-72
2021/07/19 03:13:30;;;;;;;0.20;0.20;;;;;;;23.29;56.65;102314.81;5086030;28;20665;-72
2021/07/19 03:15:58;;;;;;;0.20;0.20;;;;;;;23.24;56.70;102306.53;5105428;27;20137;-72
2021/07/19 03:18:25;;;;;;;;;;;;;;;23.31;56.46;102318.13;5069583;28;20077;-72
2021/07/19 03:20:54;;;;;;;0.10;0.10;;;;;;;23.26;56.36;102312.50;5114864;27;20513;-72
2021/07/19 03:23:24;;;;;;;0.10;0.10;;;;;;;23.28;56.53;102326.44;5082481;28;20100;-72
2021/07/19 03:25:52;;;;;;;0.10;0.10;;;;;;;23.28;56.53;102327.28;5110714;27;20046;-72
2021/07/19 03:28:19;;;;;;;0.10;0.10;;;;;;;23.23;56.38;102318.16;5094205;28;20057;-72
2021/07/19 03:30:49;;;;;;;;;;;;;;;23.27;56.63;102330.09;5102067;28;20043;-72
2021/07/19 03:33:15;;;;;;;0.28;0.28;;;;;;;23.25;56.74;102321.47;5093542;27;19972;-72
2021/07/19 03:35:41;;;;;;;0.13;0.13;;;;;;;23.25;56.76;102321.47;5096348;27;20043;-72
2021/07/19 03:38:09;;;;;;;0.10;0.10;;;;;;;23.13;56.68;102302.38;5123982;27;20049;-72
2021/07/19 03:40:55;;;;;;;0.10;0.10;;;;;;;23.20;56.54;102320.16;5118491;27;20226;-72
2021/07/19 03:43:23;;;;;;;0.10;0.10;;;;;;;23.23;56.61;102315.50;5080729;28;20147;-72
2021/07/19 03:45:49;;;;;;;0.28;0.28;;;;;;;23.03;56.56;102286.59;5108711;27;20040;-72
2021/07/19 03:48:19;;;;;;;0.03;0.03;;;;;;;23.25;56.68;102332.94;5087776;28;20043;-72
2021/07/19 03:50:50;;;;;;;0.10;0.10;;;;;;;23.22;56.57;102320.00;5100110;27;20047;-72
2021/07/19 03:53:16;;;;;;;0.10;0.10;;;;;;;23.27;56.59;102330.94;5097038;28;20532;-72
2021/07/19 03:55:51;;;;;;;0.10;0.10;;;;;;;23.23;56.72;102315.50;5087155;28;20058;-72
2021/07/19 03:58:19;;;;;;;0.10;0.10;;;;;;;23.23;56.79;102324.31;5095406;27;20035;-72
2021/07/19 04:00:48;;;;;;;0.00;0.00;;;;;;;23.25;56.75;102324.97;5081628;28;20138;-72
2021/07/19 04:03:26;;;;;;;0.10;0.10;;;;;;;23.16;56.60;102316.19;5089885;28;20039;-72
2021/07/19 04:06:03;;;;;;;0.05;0.05;;;;;;;23.18;56.80;102329.28;5077856;28;20432;-72
2021/07/19 04:08:51;;;;;;;0.13;0.13;;;;;;;23.03;56.62;102301.72;5091434;28;20065;-72
2021/07/19 04:11:20;;;;;;;0.10;0.10;;;;;;;23.24;56.68;102325.97;5115596;27;20469;-72
2021/07/19 04:13:49;;;;;;;0.10;0.10;;;;;;;23.25;56.49;102326.78;5100266;27;20460;-72
2021/07/19 04:16:21;;;;;;;0.10;0.10;;;;;;;23.25;56.58;102329.44;5113910;28;20047;-72
2021/07/19 04:18:51;;;;;;;0.10;0.10;;;;;;;23.25;56.77;102324.13;5101873;28;20092;-72
2021/07/19 04:21:19;;;;;;;0.20;0.20;;;;;;;23.16;56.68;102318.84;5112828;28;20151;-72
2021/07/19 04:23:44;;;;;;;0.10;0.10;;;;;;;23.25;56.87;102332.09;5094632;28;20066;-72
2021/07/19 04:26:24;;;;;;;0.10;0.10;;;;;;;23.23;56.50;102326.97;5098321;28;20040;-72
2021/07/19 04:29:00;;;;;;;0.10;0.10;;;;;;;23.23;56.75;102334.94;5103528;27;20067;-72
2021/07/19 04:31:31;;;;;;;0.20;0.20;;;;;;;23.24;56.53;102333.94;5095038;27;20062;-72
2021/07/19 04:33:59;;;;;;;;;;;;;;;23.24;56.82;102328.63;5108149;27;20044;-72
2021/07/19 04:36:46;;;;;;;0.30;0.30;;;;;;;23.17;56.63;102323.16;5102335;28;20288;-72
2021/07/19 04:39:12;;;;;;;0.20;0.20;;;;;;;23.22;56.70;102327.97;5095960;27;20027;-72
2021/07/19 04:41:39;;;;;;;0.10;0.10;;;;;;;23.23;56.83;102332.28;5099750;28;20047;-72
2021/07/19 04:44:05;;;;;;;0.10;0.10;;;;;;;23.18;56.76;102322.16;5109768;27;20685;-72
2021/07/19 04:46:30;;;;;;;0.15;0.15;;;;;;;23.24;56.73;102333.09;5115317;27;20496;-72
2021/07/19 04:48:56;;;;;;;0.10;0.10;;;;;;;23.24;56.75;102330.44;5075275;28;20425;-72
2021/07/19 04:51:21;;;;;;;0.10;0.10;;;;;;;23.17;56.77;102322.31;5081637;28;20028;-72
2021/07/19 04:53:49;;;;;;;0.00;0.00;;;;;;;23.22;56.62;102327.97;5093574;28;20039;-72
2021/07/19 04:56:18;;;;;;;0.08;0.08;;;;;;;23.24;56.68;102330.44;5113874;27;20493;-72
2021/07/19 04:58:48;;;;;;;0.10;0.10;;;;;;;23.12;56.51;102306.03;5110354;27;20781;-72
2021/07/19 05:01:16;;;;;;;0.20;0.20;;;;;;;23.22;56.88;102325.31;5118495;27;20493;-72
2021/07/19 05:03:50;;;;;;;0.10;0.10;;;;;;;23.23;56.69;102334.94;5108075;28;20023;-72
2021/07/19 05:06:18;;;;;;;0.10;0.10;;;;;;;23.23;56.72;102334.94;5110380;27;20489;-72
2021/07/19 05:08:46;;;;;;;0.10;0.10;;;;;;;23.24;56.78;102335.75;5120624;27;20031;-72
2021/07/19 05:11:12;;;;;;;0.22;0.22;;;;;;;23.16;56.69;102323.28;5102931;27;20036;-72
2021/07/19 05:13:39;;;;;;;0.20;0.20;;;;;;;23.23;56.84;102334.94;5108296;27;20040;-72
2021/07/19 05:16:06;;;;;;;0.10;0.10;;;;;;;23.11;56.53;102315.81;5118195;27;20125;-72
2021/07/19 05:18:32;;;;;;;0.10;0.10;;;;;;;22.87;56.72;102278.63;5100221;27;20489;-72
2021/07/19 05:20:58;;;;;;;0.10;0.10;;;;;;;23.07;56.68;102309.19;5115126;27;20031;-72
2021/07/19 05:23:25;;;;;;;0.10;0.10;;;;;;;23.25;56.63;102334.75;5110117;27;20500;-72
2021/07/19 05:25:52;;;;;;;0.17;0.17;;;;;;;23.25;56.55;102332.09;5117119;27;20062;-72
2021/07/19 05:28:18;;;;;;;0.10;0.10;;;;;;;23.25;56.45;102334.75;5116024;27;20042;-72
2021/07/19 05:30:50;;;;;;;0.00;0.00;;;;;;;23.25;56.41;102330.28;5105744;27;20455;-72
2021/07/19 05:33:20;;;;;;;0.10;0.10;;;;;;;23.13;56.70;102316.47;5101188;27;20668;-72
2021/07/19 05:35:46;;;;;;;0.13;0.13;;;;;;;23.25;56.68;102338.25;5107743;27;20698;-72
2021/07/19 05:38:12;;;;;;;0.10;0.10;;;;;;;23.19;56.57;102326.47;5127052;27;20039;-73
2021/07/19 05:40:40;;;;;;;0.00;0.00;;;;;;;23.21;56.77;102331.63;5104849;27;20040;-73
2021/07/19 05:43:07;;;;;;;0.05;0.05;;;;;;;23.25;56.85;102338.25;5108958;27;20054;-72
2021/07/19 05:45:32;;;;;;;0.10;0.10;;;;;;;23.27;56.69;102340.75;5111323;27;20035;-72
2021/07/19 05:47:58;;;;;;;0.15;0.15;;;;;;;23.26;56.40;102344.41;5113179;27;20477;-72
2021/07/19 05:50:27;;;;;;;0.10;0.10;;;;;;;23.18;56.61;102337.25;5112279;27;20104;-72
2021/07/19 05:52:53;;;;;;;0.10;0.10;;;;;;;23.17;56.35;102336.44;5119969;27;20042;-72
2021/07/19 05:55:18;;;;;;;0.10;0.10;;;;;;;23.26;56.62;102344.41;5109143;27;20487;-72
2021/07/19 05:57:45;;;;;;;0.17;0.17;;;;;;;23.08;56.27;102316.16;5092233;28;20048;-72
2021/07/19 06:00:15;;;;;;;0.10;0.10;;;;;;;23.19;56.52;102333.59;5095841;27;20061;-72
2021/07/19 06:02:43;;;;;;;0.30;0.30;;;;;;;23.26;56.50;102331.94;5116186;27;20085;-72
2021/07/19 06:05:10;;;;;;;0.10;0.10;;;;;;;23.27;56.70;102341.56;5097622;27;20600;-72
2021/07/19 06:07:35;;;;;;;0.10;0.10;;;;;;;23.28;56.74;102342.41;5107787;27;20677;-73
2021/07/19 06:10:04;;;;;;;0.10;0.10;;;;;;;23.22;56.62;102338.59;5109609;27;20138;-72
2021/07/19 06:12:29;;;;;;;0.05;0.05;;;;;;;23.26;56.78;102352.38;5103434;27;20153;-72
2021/07/19 06:14:55;;;;;;;0.10;0.10;;;;;;;23.18;56.74;102337.25;5095617;28;20063;-73
2021/07/19 06:17:20;;;;;;;0.30;0.30;;;;;;;23.26;56.75;102361.16;5120591;27;20461;-73
2021/07/19 06:19:46;;;;;;;0.10;0.10;;;;;;;23.28;56.60;102359.19;5106822;27;20067;-73
2021/07/19 06:22:12;;;;;;;0.13;0.13;;;;;;;23.13;56.43;102339.56;5111049;27;20039;-73
2021/07/19 06:24:39;;;;;;;0.00;0.00;;;;;;;23.28;56.60;102358.34;5115939;27;20475;-73
2021/07/19 06:27:06;;;;;;;0.10;0.10;;;;;;;23.29;56.70;102352.03;5107592;27;20043;-73
2021/07/19 06:29:33;;;;;;;0.20;0.20;;;;;;;23.29;56.63;102354.69;5103154;27;20020;-73
2021/07/19 06:31:58;;;;;;;0.10;0.10;;;;;;;23.10;56.44;102326.63;5101581;27;20066;-73
2021/07/19 06:34:24;;;;;;;0.20;0.20;;;;;;;23.23;56.35;102352.72;5108349;27;20118;-73
2021/07/19 06:36:49;;;;;;;0.13;0.13;;;;;;;22.94;56.60;102305.34;5108967;27;20546;-73
2021/07/19 06:39:15;;;;;;;0.10;0.10;;;;;;;23.06;56.56;102326.13;5114313;27;20508;-73
2021/07/19 06:41:41;;;;;;;0.13;0.13;;;;;;;22.89;56.43;102304.03;5107598;27;20059;-73
2021/07/19 06:44:07;;;;;;;0.10;0.10;;;;;;;23.28;56.30;102353.88;5107231;27;20047;-73
2021/07/19 06:46:32;;;;;;;0.10;0.10;;;;;;;23.29;56.44;102358.19;5099293;27;20040;-73
2021/07/19 06:48:58;;;;;;;0.10;0.10;;;;;;;23.26;56.44;102358.50;5104036;27;20546;-73
2021/07/19 06:51:23;;;;;;;0.10;0.10;;;;;;;23.29;56.38;102367.97;5117593;27;20028;-73
2021/07/19 06:53:49;;;;;;;0.10;0.10;;;;;;;23.30;56.36;102369.63;5112719;27;20031;-73
2021/07/19 06:56:14;;;;;;;0.20;0.20;;;;;;;23.26;56.28;102368.31;5116172;27;20378;-73
2021/07/19 06:58:40;;;;;;;0.20;0.20;;;;;;;23.30;56.40;102367.81;5104616;27;20043;-73
2021/07/19 07:01:06;;;;;;;0.10;0.10;;;;;;;23.19;56.39;102362.84;5111040;27;20028;-73
2021/07/19 07:03:32;;;;;;;0.10;0.10;;;;;;;23.26;56.61;102373.63;5109530;27;20050;-73
2021/07/19 07:05:58;;;;;;;0.10;0.10;;;;;;;23.29;56.48;102376.78;5105238;28;20048;-73
2021/07/19 07:08:23;;;;;;;0.17;0.17;;;;;;;23.31;56.57;102369.47;5106381;27;20035;-73
2021/07/19 07:10:49;;;;;;;0.10;0.10;;;;;;;23.32;56.27;102370.31;5102533;28;20387;-73
2021/07/19 07:13:15;;;;;;;0.20;0.20;;;;;;;23.32;56.33;102368.47;5103716;28;20050;-73
2021/07/19 07:15:41;;;;;;;0.15;0.15;;;;;;;23.32;56.23;102370.31;5102458;27;20032;-73
2021/07/19 07:18:08;;;;;;;0.17;0.17;;;;;;;23.21;56.50;102352.88;5103805;28;20793;-73
2021/07/19 07:20:34;;;;;;;0.13;0.13;;;;;;;23.23;56.18;102356.19;5104226;27;20122;-74
2021/07/19 07:23:00;;;;;;;0.20;0.20;;;;;;;23.33;55.95;102362.16;5103172;27;20448;-74
2021/07/19 07:25:25;;;;;;;0.20;0.20;;;;;;;23.34;55.75;102368.31;5105017;27;20044;-74
2021/07/19 07:27:51;;;;;;;0.10;0.10;;;;;;;23.32;55.59;102367.66;5102893;27;21045;-74
2021/07/19 07:30:16;;;;;;;0.35;0.35;;;;;;;23.31;55.34;102364.16;5095187;28;20088;-74
2021/07/19 07:32:43;;;;;;;0.28;0.28;;;;;;;23.28;55.33;102371.63;5099410;28;20036;-74
2021/07/19 07:35:09;;;;;;;0.40;0.40;;;;;;;23.25;55.41;102362.16;5102613;27;20029;-73
2021/07/19 07:37:38;;;;;;;0.10;0.10;;;;;;;23.31;55.20;102371.31;5101596;28;20440;-73
2021/07/19 07:40:05;;;;;;;0.17;0.17;;;;;;;23.30;55.16;102370.47;5099597;27;20037;-73
2021/07/19 07:42:31;;;;;;;1.50;0.40;;;;;;;23.30;54.54;102365.16;5101575;27;20528;-73
2021/07/19 07:44:57;;;;;;;0.20;0.20;;;;;;;23.20;54.43;102353.88;5098079;28;20542;-73
2021/07/19 07:47:23;;;;;;;0.55;0.43;;;;;;;23.33;54.08;102372.78;5101360;27;20044;-73
2021/07/19 07:49:49;;;;;;;0.20;0.20;;;;;;;23.34;54.05;102363.00;5082430;28;21545;-73
2021/07/19 07:52:15;;;;;;;0.30;0.30;;;;;;;23.34;53.86;102363.84;5099441;28;20039;-73
2021/07/19 07:54:41;;;;;;;0.38;0.38;;;;;;;23.31;53.80;102361.50;5098112;27;20031;-73
2021/07/19 07:57:07;;;;;;;0.32;0.32;;;;;;;23.33;53.80;102371.97;5097339;28;20088;-73
2021/07/19 07:59:33;;;;;;;0.22;0.22;;;;;;;23.35;53.66;102370.00;5100786;27;20046;-72
2021/07/19 08:01:59;;;;;;;0.20;0.20;;;;;;;23.35;53.17;102360.19;5098964;27;20035;-73
2021/07/19 08:04:27;;;;;;;0.13;0.13;;;;;;;23.25;53.18;102342.75;5096203;28;20046;-72
2021/07/19 08:06:53;;;;;;;0.40;0.40;;;;;;;23.30;52.46;102361.66;5092100;28;20032;-73
2021/07/19 08:09:18;;;;;;;0.40;0.40;;;;;;;23.25;51.22;102356.84;5108268;27;20038;-72
2021/07/19 08:11:44;;;;;;;0.17;0.17;;;;;;;23.26;51.89;102365.66;5099678;28;20044;-72
2021/07/19 08:14:09;;;;;;;0.28;0.28;;;;;;;23.02;53.20;102346.06;5112492;27;20047;-72
2021/07/19 08:16:36;;;;;;;0.35;0.35;;;;;;;23.20;53.11;102365.34;5105666;27;20435;-72
2021/07/19 08:19:09;;;;;;;0.38;0.17;;;;;;;23.12;52.74;102365.31;5107073;28;20040;-72
2021/07/19 08:21:37;;;;;;;0.55;0.32;;;;;;;23.16;51.46;102368.47;5093027;28;20508;-71
2021/07/19 08:24:03;;;;;;;0.28;0.20;;;;;;;23.13;51.54;102361.66;5106480;28;20039;-72
2021/07/19 08:26:29;;;;;;;0.47;0.47;;;;;;;23.08;50.02;102363.16;5109439;28;20032;-69
2021/07/19 08:28:55;;;;;;;0.40;0.30;;;;;;;23.07;50.04;102364.16;5106681;28;20092;-69
2021/07/19 08:31:26;;;;;;;1.38;0.38;;;;;;;22.91;50.24;102341.88;5097942;28;20028;-68
2021/07/19 08:33:52;;;;;;;0.25;0.25;;;;;;;23.12;49.98;102364.47;5071833;28;20046;-69
2021/07/19 08:36:20;;;;;;;1.00;0.43;;;;;;;23.15;50.39;102351.69;5103158;28;20090;-68
2021/07/19 08:38:47;;;;;;;0.43;0.28;;;;;;;23.33;50.10;102372.78;5071034;28;20561;-68
2021/07/19 08:41:13;;;;;;;0.40;0.40;;;;;;;23.18;49.84;102353.22;5100066;28;20056;-71
2021/07/19 08:43:40;;;;;;;0.20;0.20;;;;;;;23.35;49.07;102370.81;5103738;28;20774;-67
2021/07/19 08:46:07;;;;;;;0.30;0.30;;;;;;;23.31;50.15;102361.50;5101419;28;20036;-67
2021/07/19 08:48:33;;;;;;;0.73;0.40;;;;;;;23.44;50.79;102361.00;5067772;28;20116;-68
2021/07/19 08:51:00;;;;;;;0.40;0.40;;;;;;;23.49;49.62;102364.00;5103465;28;20027;-67
2021/07/19 08:53:27;;;;;;;0.30;0.30;;;;;;;23.40;49.74;102344.56;5078546;28;20148;-67
2021/07/19 08:55:55;;;;;;;0.25;0.20;;;;;;;23.55;49.32;102355.38;5101570;28;20031;-68
2021/07/19 08:58:22;;;;;;;0.30;0.30;;;;;;;23.53;49.50;102344.06;5077258;28;20756;-67
2021/07/19 09:00:47;;;;;;;0.25;0.25;;;;;;;23.49;49.19;102359.50;5102887;28;20027;-70
2021/07/19 09:03:13;;;;;;;0.40;0.40;;;;;;;23.54;50.46;102356.38;5080755;28;20240;-68
2021/07/19 09:05:39;;;;;;;1.42;0.40;;;;;;;23.61;50.24;102351.22;5096364;28;20122;-67
2021/07/19 09:08:06;;;;;;;0.85;0.13;;;;;;;23.65;49.66;102348.06;5093712;28;20039;-71
2021/07/19 09:10:32;;;;;;;0.25;0.25;;;;;;;23.53;48.83;102338.75;5085304;28;20059;-72
2021/07/19 09:13:01;;;;;;;0.40;0.30;;;;;;;23.62;49.77;102347.56;5096450;28;20432;-68
2021/07/19 09:15:34;;;;;;;0.15;0.15;;;;;;;23.64;49.54;102345.56;5086663;28;20102;-68
2021/07/19 09:18:00;;;;;;;0.30;0.28;;;;;;;23.72;49.21;102348.22;5095467;28;20118;-67
2021/07/19 09:20:40;;;;;;;0.40;0.30;;;;;;;23.78;48.04;102343.06;5077371;27;20085;-69
2021/07/19 09:23:08;;;;;;;0.30;0.30;;;;;;;23.85;48.65;102329.06;5099464;28;20043;-66
2021/07/19 09:25:34;;;;;;;0.20;0.20;;;;;;;23.85;46.82;102335.22;5054409;28;20031;-67
2021/07/19 09:28:04;;;;;;;0.20;0.20;;;;;;;23.96;47.26;102331.38;5102282;28;20038;-68
2021/07/19 09:30:40;;;;;;;0.10;0.10;;;;;;;23.98;48.06;102327.53;5084278;27;20103;-67
2021/07/19 09:33:11;;;;;;;0.20;0.20;;;;;;;23.99;48.02;102329.19;5113643;27;20050;-66
2021/07/19 09:35:45;;;;;;;0.20;0.20;;;;;;;24.01;47.94;102323.69;5068193;28;20833;-71
2021/07/19 09:38:13;;;;;;;0.20;0.20;;;;;;;23.93;46.71;102329.88;5100903;28;20093;-69
2021/07/19 09:40:40;;;;;;;0.13;0.13;;;;;;;23.91;48.53;102310.59;5073794;28;21549;-70
2021/07/19 09:43:20;;;;;;;0.30;0.30;;;;;;;24.03;48.08;102325.19;5099827;28;20056;-70
2021/07/19 09:45:56;;;;;;;0.40;0.40;;;;;;;24.14;48.06;102331.97;5076210;28;21509;-66
2021/07/19 09:48:22;;;;;;;0.10;0.10;;;;;;;23.88;47.59;102279.03;5032910;28;21496;-66
2021/07/19 09:50:53;;;;;;;0.30;0.30;;;;;;;24.12;47.23;102318.00;5027852;28;20082;-67
2021/07/19 09:53:45;;;;;;;0.22;0.22;;;;;;;24.26;47.77;102335.94;5037329;28;20032;-66
2021/07/19 09:56:16;;;;;;;0.20;0.20;;;;;;;24.17;47.06;102336.94;5030390;28;20052;-70
2021/07/19 09:58:47;;;;;;;0.20;0.20;;;;;;;24.16;47.97;102323.81;5048206;28;20135;-70
2021/07/19 10:01:28;;;;;;;0.20;0.20;;;;;;;24.13;47.91;102319.66;5035221;28;20521;-69
2021/07/19 10:04:03;;;;;;;0.28;0.20;;;;;;;24.11;47.65;102335.81;5059564;28;20670;-69
2021/07/19 10:06:29;;;;;;;0.30;0.30;;;;;;;24.05;47.82;102330.31;5009258;28;20969;-69
2021/07/19 10:08:56;;;;;;;0.10;0.10;;;;;;;24.03;47.50;102327.00;5042183;28;20048;-69
2021/07/19 10:11:22;;;;;;;0.32;0.32;;;;;;;24.05;47.36;102328.50;5046274;28;20275;-69
2021/07/19 10:13:52;;;;;;;0.45;0.45;;;;;;;24.00;47.47;102322.03;5009579;28;20032;-71
2021/07/19 10:16:19;;;;;;;0.20;0.20;;;;;;;23.98;46.03;102322.22;5059631;28;20032;-71
2021/07/19 10:18:47;;;;;;;0.17;0.17;;;;;;;23.99;46.08;102323.88;5009491;28;20103;-71
2021/07/19 10:21:13;;;;;;;0.45;0.35;;;;;;;23.98;46.13;102324.88;5059414;28;20169;-71
2021/07/19 10:23:40;;;;;;;0.30;0.30;;;;;;;23.96;46.09;102320.72;5025804;28;20494;-71
2021/07/19 10:26:06;;;;;;;0.25;0.25;;;;;;;23.92;46.11;102336.22;5062115;28;20045;-71
2021/07/19 10:28:32;;;;;;;0.22;0.22;;;;;;;23.93;46.12;102323.75;5029789;28;20040;-71
2021/07/19 10:30:58;;;;;;;0.35;0.30;;;;;;;23.90;46.19;102319.59;5058365;28;20048;-71
2021/07/19 10:33:23;;;;;;;0.55;0.35;;;;;;;23.92;46.61;102309.59;5032952;28;20045;-71
2021/07/19 10:35:51;;;;;;;0.20;0.20;;;;;;;23.45;46.70;102238.53;5059742;28;20040;-71
2021/07/19 10:38:20;;;;;;;0.20;0.20;;;;;;;23.83;46.62;102312.44;5016968;28;20131;-71
2021/07/19 10:40:52;;;;;;;0.40;0.40;;;;;;;23.91;46.46;102315.94;5061413;28;20040;-71
2021/07/19 10:43:17;;;;;;;0.20;0.20;;;;;;;23.93;46.87;102324.56;5017522;28;20168;-71
2021/07/19 10:45:44;;;;;;;0.13;0.13;;;;;;;23.88;46.49;102318.06;5059328;28;20131;-71
2021/07/19 10:48:27;;;;;;;0.40;0.38;;;;;;;23.83;46.31;102309.78;5031762;28;20720;-71
2021/07/19 10:50:57;;;;;;;0.20;0.20;;;;;;;23.89;46.14;102325.09;5064394;28;20051;-71
2021/07/19 10:53:23;;;;;;;0.40;0.40;;;;;;;23.91;45.97;102321.25;5032641;28;20818;-71
2021/07/19 10:55:58;;;;;;;0.30;0.30;;;;;;;23.88;46.09;102310.09;5050526;28;20047;-70
2021/07/19 10:58:29;;;;;;;0.10;0.10;;;;;;;23.88;45.77;102316.28;5059043;28;20048;-71
2021/07/19 11:00:56;;;;;;;0.35;0.35;;;;;;;23.76;46.08;102307.81;5033174;28;20044;-71
2021/07/19 11:03:22;;;;;;;0.20;0.20;;;;;;;23.65;46.73;102294.03;5034201;28;20059;-72
2021/07/19 11:05:53;;;;;;;0.28;0.20;;;;;;;23.83;46.87;102309.78;4968041;28;20071;-69
2021/07/19 11:08:24;;;;;;;0.45;0.45;;;;;;;23.81;47.63;102307.28;5052562;28;20145;-71
2021/07/19 11:10:51;;;;;;;1.55;0.30;;;;;;;23.97;47.75;102314.41;5023861;28;20095;-70
2021/07/19 11:13:28;;;;;;;0.38;0.30;;;;;;;24.05;47.33;102309.03;5021406;28;20033;-68
2021/07/19 11:15:54;;;;;;;0.40;0.28;;;;;;;24.09;46.16;102307.72;5031635;28;20045;-68
2021/07/19 11:18:23;;;;;;;0.17;0.17;;;;;;;24.07;44.61;102291.94;5057347;28;20044;-69
2021/07/19 11:20:50;;;;;;;0.30;0.30;;;;;;;24.17;45.65;102304.19;5031816;28;20111;-68
2021/07/19 11:23:37;;;;;;;0.40;0.28;;;;;;;24.06;44.67;102305.41;5055601;28;20037;-69
2021/07/19 11:26:18;;;;;;;0.30;0.30;;;;;;;24.11;45.59;102303.88;5031724;28;20059;-70
2021/07/19 11:28:44;;;;;;;0.17;0.17;;;;;;;24.07;45.18;102288.44;5033424;28;20055;-66
2021/07/19 11:31:18;;;;;;;0.30;0.30;;;;;;;24.23;45.42;102311.47;5026248;28;20580;-74
2021/07/19 11:33:49;;;;;;;0.20;0.20;;;;;;;24.14;45.29;102310.69;5058216;28;20121;-75